createdAt,value
2017-09-20T00:00:43.071Z,10.70
2017-09-20T00:03:10.598Z,10.70
2017-09-20T00:05:38.128Z,10.70
2017-09-20T00:08:08.072Z,10.60
2017-09-20T00:10:35.716Z,10.60
2017-09-20T00:13:03.238Z,10.60
2017-09-20T00:15:30.779Z,10.50
2017-09-20T00:17:58.298Z,10.60
2017-09-20T00:20:35.868Z,10.50
2017-09-20T00:23:03.383Z,10.40
2017-09-20T00:25:31.661Z,10.40
2017-09-20T00:27:59.207Z,10.40
2017-09-20T00:30:27.490Z,10.40
2017-09-20T00:32:55.003Z,10.40
2017-09-20T00:35:22.548Z,10.50
2017-09-20T00:37:50.062Z,10.50
2017-09-20T00:40:18.353Z,10.70
2017-09-20T00:42:45.906Z,10.70
2017-09-20T00:45:14.186Z,10.70
2017-09-20T00:47:41.703Z,10.70
2017-09-20T00:50:09.240Z,10.70
2017-09-20T00:52:36.754Z,10.70
2017-09-20T00:55:05.279Z,10.80
2017-09-20T00:57:32.824Z,10.80
2017-09-20T01:00:00.342Z,10.80
2017-09-20T01:02:28.628Z,10.70
2017-09-20T01:04:56.939Z,10.70
2017-09-20T01:07:24.466Z,10.70
2017-09-20T01:09:52.767Z,10.90
2017-09-20T01:12:20.545Z,10.90
2017-09-20T01:14:48.414Z,10.90
2017-09-20T01:17:15.922Z,10.90
2017-09-20T01:19:44.235Z,10.90
2017-09-20T01:25:08.455Z,10.90
2017-09-20T01:27:36.740Z,11.00
2017-09-20T01:30:04.258Z,11.00
2017-09-20T01:32:31.806Z,10.90
2017-09-20T01:34:59.324Z,10.90
2017-09-20T01:37:26.813Z,10.90
2017-09-20T01:39:55.086Z,11.00
2017-09-20T01:42:23.331Z,11.00
2017-09-20T01:44:50.810Z,11.00
2017-09-20T01:47:18.311Z,11.10
2017-09-20T01:49:45.794Z,11.10
2017-09-20T01:52:13.278Z,11.10
2017-09-20T01:54:40.778Z,11.10
2017-09-20T01:57:11.005Z,11.10
2017-09-20T01:59:40.968Z,11.20
2017-09-20T02:02:09.342Z,11.20
2017-09-20T02:04:36.822Z,11.20
2017-09-20T02:07:05.065Z,11.30
2017-09-20T02:09:32.589Z,11.20
2017-09-20T02:12:00.071Z,11.30
2017-09-20T02:14:27.641Z,11.30
2017-09-20T02:16:55.118Z,11.30
2017-09-20T02:19:23.373Z,11.20
2017-09-20T02:21:50.899Z,11.20
2017-09-20T02:24:18.381Z,11.30
2017-09-20T02:26:45.861Z,11.30
2017-09-20T02:29:13.361Z,11.20
2017-09-20T02:31:40.841Z,11.20
2017-09-20T02:34:08.326Z,11.20
2017-09-20T02:36:35.823Z,11.20
2017-09-20T02:39:03.311Z,11.20
2017-09-20T02:41:30.825Z,11.20
2017-09-20T02:43:59.072Z,11.20
2017-09-20T02:46:26.591Z,11.20
2017-09-20T02:48:54.138Z,11.30
2017-09-20T02:51:21.655Z,11.30
2017-09-20T02:53:49.176Z,11.30
2017-09-20T02:56:16.788Z,11.30
2017-09-20T02:58:45.042Z,11.30
2017-09-20T03:01:12.526Z,11.30
2017-09-20T03:03:40.797Z,11.30
2017-09-20T03:06:08.279Z,11.30
2017-09-20T03:08:35.765Z,11.30
2017-09-20T03:11:03.261Z,11.30
2017-09-20T03:13:31.514Z,11.30
2017-09-20T03:15:59.781Z,11.30
2017-09-20T03:18:27.265Z,11.30
2017-09-20T03:20:54.746Z,11.40
2017-09-20T03:23:22.254Z,11.30
2017-09-20T03:25:49.742Z,11.30
2017-09-20T03:28:17.230Z,11.30
2017-09-20T03:30:44.734Z,11.30
2017-09-20T03:33:12.472Z,11.30
2017-09-20T03:35:39.977Z,11.30
2017-09-20T03:38:07.505Z,11.30
2017-09-20T03:40:34.998Z,11.30
2017-09-20T03:43:03.268Z,11.30
2017-09-20T03:45:30.750Z,11.20
2017-09-20T03:47:58.550Z,11.30
2017-09-20T03:50:26.870Z,11.30
2017-09-20T03:52:55.166Z,11.30
2017-09-20T03:55:23.422Z,11.30
2017-09-20T03:57:50.963Z,11.30
2017-09-20T04:00:18.487Z,11.30
2017-09-20T04:02:46.011Z,11.30
2017-09-20T04:05:13.513Z,11.30
2017-09-20T04:07:40.991Z,11.30
2017-09-20T04:10:08.527Z,11.30
2017-09-20T04:12:36.016Z,11.30
2017-09-20T04:15:03.500Z,11.30
2017-09-20T04:17:31.781Z,11.30
2017-09-20T04:20:00.029Z,11.30
2017-09-20T04:22:27.539Z,11.30
2017-09-20T04:24:55.025Z,11.30
2017-09-20T04:27:22.513Z,11.30
2017-09-20T04:29:50.826Z,11.30
2017-09-20T04:32:18.322Z,11.30
2017-09-20T04:34:45.815Z,11.30
2017-09-20T04:37:14.090Z,11.30
2017-09-20T04:39:41.569Z,11.20
2017-09-20T04:42:09.058Z,11.30
2017-09-20T04:44:36.565Z,11.30
2017-09-20T04:47:04.822Z,11.30
2017-09-20T04:49:32.311Z,11.30
2017-09-20T04:51:59.815Z,11.30
2017-09-20T04:54:27.328Z,11.30
2017-09-20T04:56:54.838Z,11.30
2017-09-20T04:59:22.326Z,11.30
2017-09-20T05:01:50.573Z,11.30
2017-09-20T05:04:18.077Z,11.30
2017-09-20T05:06:45.573Z,11.30
2017-09-20T05:09:13.318Z,11.30
2017-09-20T05:11:40.826Z,11.30
2017-09-20T05:14:08.310Z,11.30
2017-09-20T05:16:35.822Z,11.40
2017-09-20T05:19:03.344Z,11.40
2017-09-20T05:21:30.833Z,11.40
2017-09-20T05:23:58.345Z,11.30
2017-09-20T05:26:25.834Z,11.30
2017-09-20T05:28:53.322Z,11.30
2017-09-20T05:31:20.834Z,11.40
2017-09-20T05:33:48.334Z,11.40
2017-09-20T05:36:15.826Z,11.40
2017-09-20T05:38:43.344Z,11.30
2017-09-20T05:41:10.834Z,11.30
2017-09-20T05:43:38.321Z,11.40
2017-09-20T05:46:05.825Z,11.30
2017-09-20T05:48:33.317Z,11.30
2017-09-20T05:51:00.802Z,11.30
2017-09-20T05:53:28.302Z,11.30
2017-09-20T05:55:55.794Z,11.40
2017-09-20T05:58:23.306Z,11.40
2017-09-20T06:00:50.790Z,11.40
2017-09-20T06:03:18.274Z,11.50
2017-09-20T06:05:45.783Z,11.60
2017-09-20T06:08:13.274Z,11.60
2017-09-20T06:10:40.765Z,11.60
2017-09-20T06:13:08.269Z,11.70
2017-09-20T06:15:36.522Z,11.60
2017-09-20T06:18:04.009Z,11.60
2017-09-20T06:20:32.281Z,11.70
2017-09-20T06:23:00.540Z,11.70
2017-09-20T06:25:28.061Z,11.70
2017-09-20T06:27:55.547Z,11.80
2017-09-20T06:30:23.034Z,11.80
2017-09-20T06:32:51.302Z,11.80
2017-09-20T06:35:19.568Z,11.80
2017-09-20T06:37:47.078Z,11.80
2017-09-20T06:40:14.564Z,11.90
2017-09-20T06:42:42.065Z,11.80
2017-09-20T06:45:10.399Z,11.90
2017-09-20T06:47:37.883Z,11.90
2017-09-20T06:50:05.374Z,11.90
2017-09-20T06:52:32.873Z,11.80
2017-09-20T06:55:00.358Z,12.00
2017-09-20T06:57:28.629Z,12.20
2017-09-20T06:59:56.110Z,12.20
2017-09-20T07:02:23.594Z,12.20
2017-09-20T07:04:51.097Z,12.30
2017-09-20T07:07:18.577Z,12.30
2017-09-20T07:09:46.845Z,12.40
2017-09-20T07:12:15.097Z,12.50
2017-09-20T07:14:42.826Z,12.50
2017-09-20T07:17:10.328Z,12.70
2017-09-20T07:19:37.813Z,12.80
2017-09-20T07:22:05.310Z,12.80
2017-09-20T07:24:32.813Z,12.90
2017-09-20T07:27:01.072Z,13.00
2017-09-20T07:29:28.557Z,13.00
2017-09-20T07:31:56.834Z,13.10
2017-09-20T07:34:24.318Z,13.10
2017-09-20T07:36:51.822Z,13.10
2017-09-20T07:39:19.644Z,13.10
2017-09-20T07:41:47.131Z,13.10
2017-09-20T07:44:14.633Z,13.30
2017-09-20T07:46:42.901Z,13.50
2017-09-20T07:49:11.154Z,13.50
2017-09-20T07:51:38.666Z,13.50
2017-09-20T07:54:06.154Z,13.40
2017-09-20T07:56:33.642Z,13.40
2017-09-20T07:59:01.910Z,13.30
2017-09-20T08:01:30.166Z,13.30
2017-09-20T08:03:57.678Z,13.30
2017-09-20T08:06:25.166Z,13.50
2017-09-20T08:08:52.649Z,13.60
2017-09-20T08:11:20.162Z,13.70
2017-09-20T08:13:47.647Z,13.80
2017-09-20T08:16:15.145Z,14.00
2017-09-20T08:18:43.418Z,14.80
2017-09-20T08:21:11.666Z,15.00
2017-09-20T08:23:39.150Z,15.00
2017-09-20T08:26:07.426Z,15.00
2017-09-20T08:28:35.669Z,15.00
2017-09-20T08:31:03.157Z,15.00
2017-09-20T08:33:30.661Z,14.90
2017-09-20T08:35:58.421Z,14.80
2017-09-20T08:38:25.909Z,14.80
2017-09-20T08:40:53.409Z,14.90
2017-09-20T08:43:20.893Z,15.20
2017-09-20T08:45:48.378Z,15.40
2017-09-20T08:48:15.878Z,15.50
2017-09-20T08:50:43.367Z,15.50
2017-09-20T08:53:10.853Z,15.30
2017-09-20T08:55:38.346Z,15.30
2017-09-20T08:58:06.597Z,16.10
2017-09-20T09:00:34.211Z,16.10
2017-09-20T09:03:01.698Z,16.20
2017-09-20T09:05:29.182Z,16.20
2017-09-20T09:07:57.457Z,16.10
2017-09-20T09:10:25.718Z,16.10
2017-09-20T09:12:53.206Z,16.10
2017-09-20T09:15:20.719Z,16.00
2017-09-20T09:17:48.200Z,15.90
2017-09-20T09:20:15.683Z,15.90
2017-09-20T09:22:43.191Z,15.90
2017-09-20T09:25:10.670Z,15.80
2017-09-20T09:27:38.390Z,16.30
2017-09-20T09:30:06.153Z,17.00
2017-09-20T09:32:33.637Z,17.90
2017-09-20T09:35:01.134Z,18.40
2017-09-20T09:37:29.650Z,18.60
2017-09-20T09:39:57.138Z,18.60
2017-09-20T09:42:24.645Z,18.50
2017-09-20T09:44:52.129Z,18.70
2017-09-20T09:47:19.606Z,18.70
2017-09-20T09:49:47.879Z,17.60
2017-09-20T09:52:15.361Z,17.60
2017-09-20T09:54:42.842Z,17.80
2017-09-20T09:57:10.341Z,17.80
2017-09-20T09:59:37.827Z,17.70
2017-09-20T10:02:05.550Z,17.70
2017-09-20T10:04:33.048Z,17.50
2017-09-20T10:07:00.534Z,17.70
2017-09-20T10:09:28.798Z,18.10
2017-09-20T10:11:57.042Z,18.50
2017-09-20T10:14:24.559Z,18.50
2017-09-20T10:16:52.814Z,18.70
2017-09-20T10:19:21.059Z,18.30
2017-09-20T10:21:48.539Z,18.30
2017-09-20T10:24:17.018Z,17.90
2017-09-20T10:26:45.269Z,18.20
2017-09-20T10:29:13.007Z,18.10
2017-09-20T10:31:40.505Z,18.20
2017-09-20T10:34:08.221Z,18.20
2017-09-20T10:36:35.737Z,18.40
2017-09-20T10:39:03.989Z,19.50
2017-09-20T10:41:31.470Z,19.50
2017-09-20T10:43:59.734Z,20.90
2017-09-20T10:46:27.205Z,20.90
2017-09-20T10:48:55.454Z,19.80
2017-09-20T10:51:22.953Z,19.80
2017-09-20T10:53:50.474Z,19.80
2017-09-20T10:56:17.977Z,19.60
2017-09-20T10:58:45.466Z,19.50
2017-09-20T11:01:13.722Z,19.50
2017-09-20T11:03:41.221Z,19.50
2017-09-20T11:06:08.693Z,19.50
2017-09-20T11:08:36.937Z,18.80
2017-09-20T11:11:04.434Z,18.70
2017-09-20T11:13:32.677Z,18.00
2017-09-20T11:16:00.154Z,18.00
2017-09-20T11:18:28.421Z,17.70
2017-09-20T11:20:55.926Z,17.70
2017-09-20T11:23:23.406Z,17.70
2017-09-20T11:25:50.897Z,17.40
2017-09-20T11:28:19.514Z,17.20
2017-09-20T11:30:47.020Z,17.20
2017-09-20T11:33:14.711Z,17.30
2017-09-20T11:35:43.326Z,18.90
2017-09-20T11:38:10.825Z,18.90
2017-09-20T11:40:38.302Z,19.50
2017-09-20T11:43:05.801Z,20.10
2017-09-20T11:45:33.273Z,20.50
2017-09-20T11:48:00.753Z,20.40
2017-09-20T11:50:28.248Z,20.30
2017-09-20T11:52:56.573Z,21.00
2017-09-20T11:55:24.046Z,21.00
2017-09-20T11:57:51.550Z,21.00
2017-09-20T12:02:47.878Z,21.40
2017-09-20T12:05:16.145Z,22.20
2017-09-20T12:07:43.617Z,22.20
2017-09-20T12:10:12.225Z,23.20
2017-09-20T12:12:39.723Z,23.10
2017-09-20T12:15:07.198Z,23.20
2017-09-20T12:17:34.676Z,23.10
2017-09-20T12:20:02.942Z,22.40
2017-09-20T12:22:31.186Z,22.40
2017-09-20T12:24:58.658Z,22.40
2017-09-20T12:27:26.149Z,23.00
2017-09-20T12:29:53.626Z,23.00
2017-09-20T12:32:21.125Z,22.20
2017-09-20T12:34:48.602Z,21.70
2017-09-20T12:37:16.850Z,20.60
2017-09-20T12:39:44.354Z,20.60
2017-09-20T12:42:11.829Z,20.40
2017-09-20T12:44:39.536Z,20.00
2017-09-20T12:47:07.051Z,19.80
2017-09-20T12:49:34.539Z,19.90
2017-09-20T12:52:02.017Z,20.50
2017-09-20T12:54:29.538Z,21.20
2017-09-20T12:56:57.018Z,22.00
2017-09-20T12:59:24.494Z,22.40
2017-09-20T13:01:52.764Z,22.40
2017-09-20T13:04:20.249Z,22.40
2017-09-20T13:06:47.733Z,22.40
2017-09-20T13:09:15.233Z,22.40
2017-09-20T13:11:42.706Z,22.40
2017-09-20T13:14:11.236Z,22.00
2017-09-20T13:16:38.998Z,21.90
2017-09-20T13:19:06.512Z,21.60
2017-09-20T13:21:33.974Z,21.30
2017-09-20T13:24:02.238Z,20.90
2017-09-20T13:26:29.717Z,20.80
2017-09-20T13:28:57.194Z,20.70
2017-09-20T13:31:24.699Z,20.50
2017-09-20T13:33:52.186Z,20.00
2017-09-20T13:36:20.426Z,20.20
2017-09-20T13:38:47.930Z,20.20
2017-09-20T13:41:15.410Z,20.50
2017-09-20T13:43:42.880Z,20.50
2017-09-20T13:46:11.146Z,20.60
2017-09-20T13:48:38.621Z,20.50
2017-09-20T13:51:06.103Z,20.60
2017-09-20T13:53:34.376Z,20.30
2017-09-20T13:56:01.853Z,20.30
2017-09-20T13:58:29.341Z,20.30
2017-09-20T14:00:56.847Z,20.00
2017-09-20T14:03:24.330Z,19.80
2017-09-20T14:05:51.821Z,19.60
2017-09-20T14:08:19.329Z,19.50
2017-09-20T14:10:47.858Z,19.70
2017-09-20T14:13:15.334Z,19.70
2017-09-20T14:15:42.839Z,19.60
2017-09-20T14:18:11.082Z,19.40
2017-09-20T14:20:38.561Z,19.40
2017-09-20T14:23:06.822Z,19.70
2017-09-20T14:25:34.293Z,19.70
2017-09-20T14:28:02.548Z,19.70
2017-09-20T14:30:30.062Z,19.70
2017-09-20T14:32:57.537Z,19.50
2017-09-20T14:35:25.019Z,19.70
2017-09-20T14:37:52.514Z,19.60
2017-09-20T14:40:20.002Z,19.50
2017-09-20T14:42:47.477Z,19.40
2017-09-20T14:45:14.973Z,19.40
2017-09-20T14:47:43.213Z,19.50
2017-09-20T14:50:10.697Z,19.50
2017-09-20T14:52:38.202Z,19.60
2017-09-20T14:55:05.677Z,19.60
2017-09-20T14:57:33.528Z,19.50
2017-09-20T15:00:01.034Z,19.60
2017-09-20T15:02:28.513Z,19.50
2017-09-20T15:04:55.993Z,19.20
2017-09-20T15:07:23.506Z,19.00
2017-09-20T15:09:51.763Z,18.60
2017-09-20T15:12:20.384Z,18.30
2017-09-20T15:14:48.659Z,18.30
2017-09-20T15:17:16.154Z,18.30
2017-09-20T15:19:43.630Z,18.40
2017-09-20T15:22:11.135Z,18.30
2017-09-20T15:24:38.621Z,18.20
2017-09-20T15:27:06.110Z,18.10
2017-09-20T15:29:33.611Z,17.90
2017-09-20T15:32:01.126Z,17.70
2017-09-20T15:34:28.863Z,17.60
2017-09-20T15:36:56.371Z,17.40
2017-09-20T15:39:23.870Z,17.40
2017-09-20T15:41:51.373Z,17.20
2017-09-20T15:44:19.661Z,17.20
2017-09-20T15:46:47.930Z,17.10
2017-09-20T15:49:15.438Z,17.10
2017-09-20T15:51:42.949Z,17.10
2017-09-20T15:54:11.222Z,17.00
2017-09-20T15:56:38.715Z,17.00
2017-09-20T15:59:06.222Z,17.00
2017-09-20T16:01:33.701Z,16.90
2017-09-20T16:04:01.282Z,17.00
2017-09-20T16:06:28.793Z,17.10
2017-09-20T16:08:56.290Z,16.90
2017-09-20T16:11:23.779Z,17.00
2017-09-20T16:13:51.334Z,16.90
2017-09-20T16:16:18.823Z,16.90
2017-09-20T16:18:46.307Z,16.80
2017-09-20T16:21:13.829Z,16.80
2017-09-20T16:23:41.349Z,16.80
2017-09-20T16:26:08.861Z,16.80
2017-09-20T16:28:36.387Z,16.80
2017-09-20T16:31:03.894Z,16.70
2017-09-20T16:33:31.386Z,16.60
2017-09-20T16:35:58.912Z,16.50
2017-09-20T16:38:27.469Z,16.50
2017-09-20T16:40:54.978Z,16.40
2017-09-20T16:43:22.486Z,16.30
2017-09-20T16:45:49.987Z,16.30
2017-09-20T16:48:17.507Z,16.30
2017-09-20T16:50:45.013Z,16.20
2017-09-20T16:53:12.510Z,16.10
2017-09-20T16:55:40.018Z,16.10
2017-09-20T16:58:07.514Z,16.00
2017-09-20T17:00:36.141Z,15.80
2017-09-20T17:03:03.653Z,15.80
2017-09-20T17:05:31.162Z,15.70
2017-09-20T17:07:58.666Z,15.70
2017-09-20T17:10:26.186Z,15.60
2017-09-20T17:12:53.707Z,15.40
2017-09-20T17:15:21.245Z,15.20
2017-09-20T17:17:48.746Z,14.90
2017-09-20T17:20:16.998Z,14.50
2017-09-20T17:22:44.536Z,14.50
2017-09-20T17:25:12.049Z,14.40
2017-09-20T17:27:40.305Z,14.30
2017-09-20T17:30:07.833Z,14.30
2017-09-20T17:32:35.360Z,14.20
2017-09-20T17:35:02.869Z,14.10
2017-09-20T17:37:30.390Z,14.10
2017-09-20T17:39:57.906Z,14.20
2017-09-20T17:42:26.178Z,14.20
2017-09-20T17:44:54.467Z,14.10
2017-09-20T17:47:21.978Z,14.10
2017-09-20T17:49:49.482Z,14.20
2017-09-20T17:52:17.782Z,14.20
2017-09-20T17:54:45.293Z,14.20
2017-09-20T17:57:12.808Z,14.20
2017-09-20T17:59:40.301Z,14.20
2017-09-20T18:02:08.149Z,14.20
2017-09-20T18:04:35.666Z,14.20
2017-09-20T18:07:03.190Z,14.20
2017-09-20T18:09:30.690Z,13.90
2017-09-20T18:11:58.210Z,13.50
2017-09-20T18:14:25.702Z,13.40
2017-09-20T18:16:53.227Z,13.20
2017-09-20T18:19:20.725Z,13.10
2017-09-20T18:21:48.213Z,13.00
2017-09-20T18:24:15.722Z,13.10
2017-09-20T18:26:43.991Z,13.00
2017-09-20T18:29:12.249Z,13.00
2017-09-20T18:31:39.766Z,13.00
2017-09-20T18:34:07.262Z,12.90
2017-09-20T18:36:34.753Z,12.80
2017-09-20T18:39:02.266Z,12.80
2017-09-20T18:41:29.771Z,12.70
2017-09-20T18:43:57.288Z,12.60
2017-09-20T18:46:24.787Z,12.50
2017-09-20T18:48:52.295Z,12.50
2017-09-20T18:51:19.824Z,12.50
2017-09-20T18:53:47.329Z,12.50
2017-09-20T18:56:14.826Z,12.50
2017-09-20T18:58:42.343Z,12.40
2017-09-20T19:01:09.851Z,12.40
2017-09-20T19:03:37.350Z,12.40
2017-09-20T19:06:04.863Z,12.40
2017-09-20T19:08:32.358Z,12.50
2017-09-20T19:10:59.864Z,12.40
2017-09-20T19:13:27.378Z,12.30
2017-09-20T19:15:54.874Z,12.20
2017-09-20T19:18:22.381Z,12.20
2017-09-20T19:20:49.883Z,12.20
2017-09-20T19:23:17.377Z,12.20
2017-09-20T19:25:44.893Z,12.20
2017-09-20T19:28:13.429Z,12.20
2017-09-20T19:30:40.937Z,12.20
2017-09-20T19:33:09.222Z,12.10
2017-09-20T19:35:37.488Z,12.10
2017-09-20T19:38:05.766Z,11.90
2017-09-20T19:40:34.034Z,11.90
2017-09-20T19:43:01.535Z,11.80
2017-09-20T19:45:29.053Z,11.80
2017-09-20T19:47:57.319Z,11.90
2017-09-20T19:50:24.807Z,11.80
2017-09-20T19:52:52.329Z,11.90
2017-09-20T19:55:19.834Z,11.90
2017-09-20T19:57:47.618Z,11.90
2017-09-20T20:00:15.134Z,11.70
2017-09-20T20:02:42.625Z,11.70
2017-09-20T20:05:10.118Z,11.60
2017-09-20T20:07:37.635Z,11.50
2017-09-20T20:10:05.130Z,11.30
2017-09-20T20:12:32.666Z,11.30
2017-09-20T20:15:00.158Z,11.10
2017-09-20T20:17:27.650Z,11.10
2017-09-20T20:19:55.166Z,11.10
2017-09-20T20:22:22.665Z,11.20
2017-09-20T20:24:50.166Z,11.20
2017-09-20T20:27:18.038Z,11.20
2017-09-20T20:29:46.342Z,11.10
2017-09-20T20:32:13.864Z,11.10
2017-09-20T20:34:41.357Z,11.10
2017-09-20T20:37:09.625Z,11.00
2017-09-20T20:39:37.150Z,11.00
2017-09-20T20:42:04.660Z,11.00
2017-09-20T20:44:32.930Z,10.70
2017-09-20T20:47:01.215Z,10.40
2017-09-20T20:49:29.487Z,10.40
2017-09-20T20:51:57.758Z,10.30
2017-09-20T20:54:26.052Z,10.30
2017-09-20T20:56:53.546Z,10.30
2017-09-20T20:59:21.043Z,10.20
2017-09-20T21:01:48.558Z,10.20
2017-09-20T21:04:16.424Z,10.20
2017-09-20T21:06:43.921Z,10.20
2017-09-20T21:09:11.432Z,10.20
2017-09-20T21:11:38.931Z,10.20
2017-09-20T21:14:06.454Z,10.20
2017-09-20T21:16:33.975Z,10.20
2017-09-20T21:19:02.247Z,10.20
2017-09-20T21:21:30.531Z,10.10
2017-09-20T21:23:58.792Z,9.80
2017-09-20T21:26:27.067Z,9.60
2017-09-20T21:28:55.341Z,9.50
2017-09-20T21:31:23.599Z,9.50
2017-09-20T21:33:51.094Z,9.50
2017-09-20T21:36:19.362Z,9.70
2017-09-20T21:38:46.864Z,9.60
2017-09-20T21:41:14.723Z,9.70
2017-09-20T21:43:42.226Z,9.70
2017-09-20T21:46:09.711Z,9.70
2017-09-20T21:48:37.205Z,9.70
2017-09-20T21:51:04.710Z,9.70
2017-09-20T21:53:32.198Z,9.70
2017-09-20T21:55:59.708Z,9.70
2017-09-20T21:58:27.205Z,9.70
2017-09-20T22:00:54.694Z,9.60
2017-09-20T22:03:22.971Z,9.40
2017-09-20T22:05:50.462Z,9.40
2017-09-20T22:08:17.991Z,9.40
2017-09-20T22:10:45.487Z,9.30
2017-09-20T22:13:13.751Z,9.30
2017-09-20T22:15:53.810Z,9.30
2017-09-20T22:18:33.862Z,9.10
2017-09-20T22:21:13.180Z,9.10
2017-09-20T22:23:52.390Z,8.90
2017-09-20T22:26:31.707Z,8.80
2017-09-20T22:28:59.198Z,8.80
2017-09-20T22:31:26.694Z,8.70
2017-09-20T22:33:54.205Z,8.70
2017-09-20T22:36:21.706Z,8.60
2017-09-20T22:38:49.958Z,8.60
2017-09-20T22:41:17.462Z,8.60
2017-09-20T22:43:44.962Z,8.60
2017-09-20T22:46:12.495Z,8.60
2017-09-20T22:48:39.994Z,8.60
2017-09-20T22:51:07.503Z,8.60
2017-09-20T22:53:35.010Z,8.70
2017-09-20T22:56:02.517Z,8.60
2017-09-20T22:58:30.023Z,8.50
2017-09-20T23:01:00.388Z,8.40
2017-09-20T23:03:27.878Z,8.20
2017-09-20T23:05:56.148Z,8.10
2017-09-20T23:08:23.634Z,8.10
2017-09-20T23:10:51.127Z,8.20
2017-09-20T23:13:18.640Z,8.20
2017-09-20T23:15:46.125Z,8.10
2017-09-20T23:18:14.381Z,8.20
2017-09-20T23:20:41.892Z,8.20
2017-09-20T23:23:09.381Z,8.20
2017-09-20T23:25:36.862Z,8.20
2017-09-20T23:28:05.142Z,8.00
2017-09-20T23:30:33.406Z,8.00
2017-09-20T23:33:00.889Z,8.00
2017-09-20T23:35:29.168Z,7.90
2017-09-20T23:37:57.437Z,7.90
2017-09-20T23:40:24.935Z,7.90
2017-09-20T23:42:52.441Z,7.90
2017-09-20T23:45:20.699Z,7.80
2017-09-20T23:47:48.215Z,7.80
2017-09-20T23:50:15.702Z,7.80
2017-09-20T23:52:43.959Z,7.80
2017-09-20T23:55:11.465Z,7.80
2017-09-20T23:57:40.002Z,7.90
